Time;durP1;ratioP1;P1;durP2;ratioP2;P2;SDS_P1;SDS_P2;PMS_P1;PMS_P2;Temp;Humidity;BMP_temperature;BMP_pressure;BME280_temperature;BME280_humidity;BME280_pressure;Samples;Min_cycle;Max_cycle;Signal;HPM_P1;HPM_P2
2023/02/15 00:01:15;;;;;;;;;;;;;;;;;;4869422;29;19923;-93
2023/02/15 00:03:41;;;;;;;;;;;;;;;;;;4900944;29;19928;-91
2023/02/15 00:06:06;;;;;;;;;;;;;;;;;;4884066;29;19976;-93
2023/02/15 00:08:32;;;;;;;;;;;;;;;;;;4868310;29;19931;-92
2023/02/15 00:11:00;;;;;;;;;;;;;;;;;;4884301;29;19923;-94
2023/02/15 00:13:26;;;;;;;;;;;;;;;;;;4899657;29;19923;-93
2023/02/15 00:15:52;;;;;;;;;;;;;;;;;;4868704;29;19962;-93
2023/02/15 00:18:18;;;;;;;;;;;;;;;;;;4883964;29;19923;-92
2023/02/15 00:20:44;;;;;;;;;;;;;;;;;;4868321;29;19931;-93
2023/02/15 00:23:10;;;;;;;;;;;;;;;;;;4883468;29;19986;-93
2023/02/15 00:25:35;;;;;;;;;;;;;;;;;;4883339;29;19934;-94
2023/02/15 00:28:01;;;;;;;;;;;;;;;;;;4867536;29;19971;-92
2023/02/15 00:30:27;;;;;;;;;;;;;;;;;;4867523;29;19989;-92
2023/02/15 00:32:53;;;;;;;;;;;;;;;;;;4899991;29;19927;-93
2023/02/15 00:35:19;;;;;;;;;;;;;;;;;;4900101;29;20014;-93
2023/02/15 00:37:45;;;;;;;;;;;;;;;;;;4883002;29;19963;-93
2023/02/15 00:40:11;;;;;;;;;;;;;;;;;;4867857;29;19934;-93
2023/02/15 00:42:37;;;;;;;;;;;;;;;;;;4868215;29;19931;-93
2023/02/15 00:45:03;;;;;;;;;;;;;;;;;;4900456;29;19975;-93
2023/02/15 00:47:29;;;;;;;;;;;;;;;;;;4883894;29;19923;-93
2023/02/15 00:49:55;;;;;;;;;;;;;;;;;;4883815;29;19930;-94
2023/02/15 00:52:21;;;;;;;;;;;;;;;;;;4883637;29;19930;-93
2023/02/15 00:54:47;;;;;;;;;;;;;;;;;;4900196;29;19983;-93
2023/02/15 00:57:13;;;;;;;;;;;;;;;;;;4868224;29;20354;-94
2023/02/15 00:59:38;;;;;;;;;;;;;;;;;;4883686;29;19927;-94
2023/02/15 01:02:04;;;;;;;;;;;;;;;;;;4883699;29;19923;-94
2023/02/15 01:04:30;;;;;;;;;;;;;;;;;;4867863;29;19998;-95
2023/02/15 01:06:56;;;;;;;;;;;;;;;;;;4883420;29;20259;-94
2023/02/15 01:09:22;;;;;;;;;;;;;;;;;;4883060;29;20024;-95
2023/02/15 01:11:48;;;;;;;;;;;;;;;;;;4884230;29;20278;-94
2023/02/15 01:14:14;;;;;;;;;;;;;;;;;;4867494;29;19931;-92
2023/02/15 01:16:40;;;;;;;;;;;;;;;;;;4899493;29;20287;-93
2023/02/15 01:19:06;;;;;;;;;;;;;;;;;;4882867;29;19954;-94
2023/02/15 01:21:34;;;;;;;;;;;;;;;;;;4867843;29;19963;-94
2023/02/15 01:24:00;;;;;;;;;;;;;;;;;;4883577;29;19927;-94
2023/02/15 01:26:26;;;;;;;;;;;;;;;;;;4883066;29;19923;-93
2023/02/15 01:28:52;;;;;;;;;;;;;;;;;;4899134;29;19928;-94
2023/02/15 01:31:18;;;;;;;;;;;;;;;;;;4898974;29;19923;-92
2023/02/15 01:33:45;;;;;;;;;;;;;;;;;;4898986;29;19923;-94
2023/02/15 01:36:11;;;;;;;;;;;;;;;;;;4882932;29;19927;-93
2023/02/15 01:38:37;;;;;;;;;;;;;;;;;;4883211;29;20101;-94
2023/02/15 01:43:47;;;;;;;;;;;;;;;;;;4882793;29;19927;-93
2023/02/15 01:46:13;;;;;;;;;;;;;;;;;;4899505;29;20379;-94
2023/02/15 01:48:39;;;;;;;;;;;;;;;;;;4867453;29;20414;-95
2023/02/15 01:51:05;;;;;;;;;;;;;;;;;;4883290;29;19937;-94
2023/02/15 01:53:31;;;;;;;;;;;;;;;;;;4867414;29;19945;-95
2023/02/15 01:55:57;;;;;;;;;;;;;;;;;;4867550;29;19935;-94
2023/02/15 01:58:23;;;;;;;;;;;;;;;;;;4867078;29;19923;-92
2023/02/15 02:00:49;;;;;;;;;;;;;;;;;;4866479;29;19948;-94
2023/02/15 02:03:20;;;;;;;;;;;;;;;;;;4867662;29;19924;-95
2023/02/15 02:05:48;;;;;;;;;;;;;;;;;;4883603;29;19930;-94
2023/02/15 02:08:14;;;;;;;;;;;;;;;;;;4898956;29;19930;-96
2023/02/15 02:10:43;;;;;;;;;;;;;;;;;;4883838;29;19923;-93
2023/02/15 02:13:09;;;;;;;;;;;;;;;;;;4882490;29;20381;-92
2023/02/15 02:15:35;;;;;;;;;;;;;;;;;;4867064;29;20002;-92
2023/02/15 02:18:01;;;;;;;;;;;;;;;;;;4866648;29;20023;-93
2023/02/15 02:20:27;;;;;;;;;;;;;;;;;;4866787;29;19970;-92
2023/02/15 02:22:53;;;;;;;;;;;;;;;;;;4886031;29;19923;-92
2023/02/15 02:25:19;;;;;;;;;;;;;;;;;;4870159;29;20037;-92
2023/02/15 02:27:45;;;;;;;;;;;;;;;;;;4885539;29;19927;-92
2023/02/15 02:30:11;;;;;;;;;;;;;;;;;;4870176;29;19931;-92
2023/02/15 02:32:37;;;;;;;;;;;;;;;;;;4885683;29;20383;-92
2023/02/15 02:35:03;;;;;;;;;;;;;;;;;;4885387;29;19924;-94
2023/02/15 02:37:29;;;;;;;;;;;;;;;;;;4870316;29;19931;-93
2023/02/15 02:39:55;;;;;;;;;;;;;;;;;;4869641;29;19927;-91
2023/02/15 02:42:21;;;;;;;;;;;;;;;;;;4869742;29;19930;-94
2023/02/15 02:44:47;;;;;;;;;;;;;;;;;;4886120;29;19964;-94
2023/02/15 02:47:13;;;;;;;;;;;;;;;;;;4887198;29;19924;-93
2023/02/15 02:49:39;;;;;;;;;;;;;;;;;;4872448;29;19931;-93
2023/02/15 02:52:05;;;;;;;;;;;;;;;;;;4874573;29;19930;-94
2023/02/15 02:54:31;;;;;;;;;;;;;;;;;;4889494;29;19923;-94
2023/02/15 02:56:57;;;;;;;;;;;;;;;;;;4906129;29;19923;-95
2023/02/15 02:59:23;;;;;;;;;;;;;;;;;;4872733;29;19930;-94
2023/02/15 03:01:49;;;;;;;;;;;;;;;;;;4872264;29;19923;-94
2023/02/15 03:04:15;;;;;;;;;;;;;;;;;;4872092;29;19939;-94
2023/02/15 03:06:41;;;;;;;;;;;;;;;;;;4887766;29;19923;-94
2023/02/15 03:09:07;;;;;;;;;;;;;;;;;;4873926;29;19923;-93
2023/02/15 03:11:33;;;;;;;;;;;;;;;;;;4890600;29;19923;-93
2023/02/15 03:13:59;;;;;;;;;;;;;;;;;;4888826;29;19912;-92
2023/02/15 03:16:28;;;;;;;;;;;;;;;;;;4873179;29;20021;-93
2023/02/15 03:18:56;;;;;;;;;;;;;;;;;;4903738;29;19923;-94
2023/02/15 03:21:22;;;;;;;;;;;;;;;;;;4885320;29;19923;-93
2023/02/15 03:23:48;;;;;;;;;;;;;;;;;;4884993;29;19927;-94
2023/02/15 03:26:14;;;;;;;;;;;;;;;;;;4884888;29;19932;-95
2023/02/15 03:28:40;;;;;;;;;;;;;;;;;;4884870;29;20074;-96
2023/02/15 03:31:06;;;;;;;;;;;;;;;;;;4869407;29;20026;-94
2023/02/15 03:33:32;;;;;;;;;;;;;;;;;;4869247;29;19931;-94
2023/02/15 03:35:58;;;;;;;;;;;;;;;;;;4869549;29;19924;-93
2023/02/15 03:38:24;;;;;;;;;;;;;;;;;;4901326;29;19928;-95
2023/02/15 03:43:35;;;;;;;;;;;;;;;;;;4884487;29;19927;-93
2023/02/15 03:46:01;;;;;;;;;;;;;;;;;;4869552;29;20269;-92
2023/02/15 03:48:27;;;;;;;;;;;;;;;;;;4868384;29;20298;-91
2023/02/15 03:53:37;;;;;;;;;;;;;;;;;;4900932;29;19931;-91
2023/02/15 03:56:03;;;;;;;;;;;;;;;;;;4901348;29;19923;-92
2023/02/15 04:04:01;;;;;;;;;;;;;;;;;;4883664;29;19927;-92
2023/02/15 04:06:27;;;;;;;;;;;;;;;;;;4884191;29;20035;-93
2023/02/15 04:11:38;;;;;;;;;;;;;;;;;;4883730;29;19927;-92
2023/02/15 04:16:02;;;;;;;;;;;;;;;;;;4883995;29;20010;-92
2023/02/15 04:16:49;;;;;;;;;;;;;;;;;;4900168;29;19927;-92
2023/02/15 04:27:29;;;;;;;;;;;;;;;;;;4883704;29;19924;-92
2023/02/15 04:29:55;;;;;;;;;;;;;;;;;;4884082;29;19930;-95
2023/02/15 04:32:21;;;;;;;;;;;;;;;;;;4868053;29;19923;-93
2023/02/15 04:34:47;;;;;;;;;;;;;;;;;;4868197;29;19924;-93
2023/02/15 04:37:13;;;;;;;;;;;;;;;;;;4867907;29;19923;-93
2023/02/15 04:39:39;;;;;;;;;;;;;;;;;;4883177;29;19939;-94
2023/02/15 04:42:06;;;;;;;;;;;;;;;;;;4868583;29;19970;-92
2023/02/15 04:44:31;;;;;;;;;;;;;;;;;;4882504;29;19928;-91
2023/02/15 04:46:57;;;;;;;;;;;;;;;;;;4867495;29;19929;-95
2023/02/15 04:49:23;;;;;;;;;;;;;;;;;;4899412;29;19923;-93
2023/02/15 04:51:49;;;;;;;;;;;;;;;;;;4868314;29;20423;-94
2023/02/15 04:54:15;;;;;;;;;;;;;;;;;;4899361;29;20343;-92
2023/02/15 04:56:42;;;;;;;;;;;;;;;;;;4883205;29;19930;-92
2023/02/15 04:59:08;;;;;;;;;;;;;;;;;;4883152;29;19930;-92
2023/02/15 05:01:34;;;;;;;;;;;;;;;;;;4867609;29;19923;-92
2023/02/15 05:03:59;;;;;;;;;;;;;;;;;;4899699;29;20039;-91
2023/02/15 05:06:25;;;;;;;;;;;;;;;;;;4898907;29;19979;-94
2023/02/15 05:08:51;;;;;;;;;;;;;;;;;;4867950;29;19923;-94
2023/02/15 05:11:17;;;;;;;;;;;;;;;;;;4883367;29;19923;-95
2023/02/15 05:13:43;;;;;;;;;;;;;;;;;;4900136;29;20088;-94
2023/02/15 05:16:09;;;;;;;;;;;;;;;;;;4868172;29;19923;-94
2023/02/15 05:18:35;;;;;;;;;;;;;;;;;;4867639;29;19986;-95
2023/02/15 05:21:01;;;;;;;;;;;;;;;;;;4867893;29;19931;-95
2023/02/15 05:23:27;;;;;;;;;;;;;;;;;;4882882;29;19992;-93
2023/02/15 05:28:38;;;;;;;;;;;;;;;;;;4882672;29;19934;-95
2023/02/15 05:31:04;;;;;;;;;;;;;;;;;;4867249;29;19924;-94
2023/02/15 05:33:30;;;;;;;;;;;;;;;;;;4882865;29;19931;-94
2023/02/15 05:35:56;;;;;;;;;;;;;;;;;;4867609;29;19923;-94
2023/02/15 05:38:22;;;;;;;;;;;;;;;;;;4867801;29;19923;-93
2023/02/15 05:40:50;;;;;;;;;;;;;;;;;;4898273;29;20071;-93
2023/02/15 05:43:16;;;;;;;;;;;;;;;;;;4882845;29;19924;-93
2023/02/15 05:45:42;;;;;;;;;;;;;;;;;;4883054;29;20010;-94
2023/02/15 05:48:08;;;;;;;;;;;;;;;;;;4867446;29;19971;-94
2023/02/15 05:50:35;;;;;;;;;;;;;;;;;;4867593;29;19927;-93
2023/02/15 05:53:01;;;;;;;;;;;;;;;;;;4899951;29;19931;-95
2023/02/15 05:55:27;;;;;;;;;;;;;;;;;;4901245;29;19923;-96
2023/02/15 05:57:53;;;;;;;;;;;;;;;;;;4903865;29;19927;-94
2023/02/15 06:00:19;;;;;;;;;;;;;;;;;;4871023;29;19923;-96
2023/02/15 06:02:45;;;;;;;;;;;;;;;;;;4870930;29;19911;-93
2023/02/15 06:05:11;;;;;;;;;;;;;;;;;;4870963;29;19991;-93
2023/02/15 06:07:37;;;;;;;;;;;;;;;;;;4902755;29;20014;-92
2023/02/15 06:10:03;;;;;;;;;;;;;;;;;;4902385;29;19924;-93
2023/02/15 06:12:29;;;;;;;;;;;;;;;;;;4886141;29;19927;-92
2023/02/15 06:14:55;;;;;;;;;;;;;;;;;;4870479;29;19923;-93
2023/02/15 06:17:21;;;;;;;;;;;;;;;;;;4886136;29;19930;-94
2023/02/15 06:19:47;;;;;;;;;;;;;;;;;;4902160;29;20010;-93
2023/02/15 06:22:13;;;;;;;;;;;;;;;;;;4870986;29;19977;-94
2023/02/15 06:24:42;;;;;;;;;;;;;;;;;;4910183;29;19994;-95
2023/02/15 06:32:45;;;;;;;;;;;;;;;;;;4854973;29;20430;-95
2023/02/15 06:40:50;;;;;;;;;;;;;;;;;;5003077;23;19931;-94
2023/02/15 06:43:16;;;;;;;;;;;;;;;;;;4886489;29;19919;-94
2023/02/15 07:26:54;;;;;;;;;;;;;;;;;;5402458;23;19927;-95
2023/02/15 07:35:50;;;;;;;;;;;;;;;;;;4838707;29;20147;-96
2023/02/15 10:23:05;;;;;;;;;;;;;;;;;;6201916;22;19924;-95
2023/02/15 17:13:10;;;;;;;;;;;;;;;;;;6236287;22;20943;-91
2023/02/15 17:31:23;;;;;;;;;;;;;;;;;;6280804;22;19915;-92
2023/02/15 17:33:49;;;;;;;;;;;;;;;;;;6227275;22;19961;-93
2023/02/15 18:13:16;;;;;;;;;;;;;;;;;;6247706;23;19915;-92
2023/02/15 18:15:43;;;;;;;;;;;;;;;;;;6246862;23;20012;-92
2023/02/15 18:18:09;;;;;;;;;;;;;;;;;;6221420;23;19919;-93
2023/02/15 18:20:35;;;;;;;;;;;;;;;;;;6246615;23;19927;-92
2023/02/15 18:23:19;;;;;;;;;;;;;;;;;;6220899;23;19920;-95
2023/02/15 18:25:45;;;;;;;;;;;;;;;;;;6222131;23;20244;-95
2023/02/15 18:28:14;;;;;;;;;;;;;;;;;;6248672;23;19915;-94
2023/02/15 18:30:43;;;;;;;;;;;;;;;;;;6221140;23;19916;-95
2023/02/15 18:33:09;;;;;;;;;;;;;;;;;;6221178;23;20237;-93
2023/02/15 18:35:35;;;;;;;;;;;;;;;;;;6220845;23;19915;-92
2023/02/15 18:38:01;;;;;;;;;;;;;;;;;;6246436;23;19930;-92
2023/02/15 18:43:03;;;;;;;;;;;;;;;;;;6236537;22;19923;-93
2023/02/15 18:45:33;;;;;;;;;;;;;;;;;;6195601;23;19920;-94
2023/02/15 18:48:08;;;;;;;;;;;;;;;;;;6220763;23;19965;-96
2023/02/15 18:50:34;;;;;;;;;;;;;;;;;;6195389;23;20076;-94
2023/02/15 18:53:11;;;;;;;;;;;;;;;;;;6220733;23;19938;-95
2023/02/15 18:55:37;;;;;;;;;;;;;;;;;;6221222;23;19920;-93
2023/02/15 18:58:03;;;;;;;;;;;;;;;;;;6195756;23;20503;-92
2023/02/15 19:00:31;;;;;;;;;;;;;;;;;;6195803;23;19973;-93
2023/02/15 19:02:57;;;;;;;;;;;;;;;;;;6220756;23;19916;-93
2023/02/15 19:05:22;;;;;;;;;;;;;;;;;;6195530;23;19926;-93
2023/02/15 19:07:50;;;;;;;;;;;;;;;;;;6195829;23;19915;-92
2023/02/15 19:10:16;;;;;;;;;;;;;;;;;;6220766;23;19915;-93
2023/02/15 19:13:04;;;;;;;;;;;;;;;;;;6202514;23;19960;-96
2023/02/15 19:15:29;;;;;;;;;;;;;;;;;;6246944;23;19920;-95
2023/02/15 19:17:58;;;;;;;;;;;;;;;;;;6220983;23;19966;-94
2023/02/15 19:23:30;;;;;;;;;;;;;;;;;;6157368;23;19920;-94
2023/02/15 19:26:17;;;;;;;;;;;;;;;;;;6217562;23;19915;-96
2023/02/15 19:28:43;;;;;;;;;;;;;;;;;;6221180;23;20324;-96
2023/02/15 19:31:20;;;;;;;;;;;;;;;;;;6196061;23;19969;-96
2023/02/15 19:39:41;;;;;;;;;;;;;;;;;;6214672;23;20002;-95
2023/02/15 19:42:13;;;;;;;;;;;;;;;;;;6197938;23;20038;-94
2023/02/15 19:44:42;;;;;;;;;;;;;;;;;;6220815;23;20332;-93
2023/02/15 19:47:08;;;;;;;;;;;;;;;;;;6220600;23;19923;-93
2023/02/15 19:49:34;;;;;;;;;;;;;;;;;;6194852;23;19916;-93
2023/02/15 19:52:00;;;;;;;;;;;;;;;;;;6194916;23;19922;-93
2023/02/15 19:54:26;;;;;;;;;;;;;;;;;;6220290;23;19923;-94
2023/02/15 19:56:52;;;;;;;;;;;;;;;;;;6220546;23;19916;-92
2023/02/15 19:59:18;;;;;;;;;;;;;;;;;;6220190;23;19963;-91
2023/02/15 20:01:44;;;;;;;;;;;;;;;;;;6220365;23;19991;-93
2023/02/15 20:04:10;;;;;;;;;;;;;;;;;;6194890;23;19922;-93
2023/02/15 20:06:36;;;;;;;;;;;;;;;;;;6195162;23;19916;-92
2023/02/15 20:09:02;;;;;;;;;;;;;;;;;;6196124;23;20240;-93
2023/02/15 20:11:28;;;;;;;;;;;;;;;;;;6195377;23;19963;-94
2023/02/15 20:19:44;;;;;;;;;;;;;;;;;;6221732;22;19918;-94
2023/02/15 20:22:10;;;;;;;;;;;;;;;;;;6249483;22;19925;-94
2023/02/15 20:24:36;;;;;;;;;;;;;;;;;;6250899;22;19990;-95
2023/02/15 20:27:03;;;;;;;;;;;;;;;;;;6226006;22;19926;-94
2023/02/15 20:29:29;;;;;;;;;;;;;;;;;;6225759;22;19943;-94
2023/02/15 20:31:59;;;;;;;;;;;;;;;;;;6225925;22;19915;-94
2023/02/15 20:34:28;;;;;;;;;;;;;;;;;;6236531;22;19915;-95
2023/02/15 20:36:54;;;;;;;;;;;;;;;;;;6236475;22;20249;-94
2023/02/15 20:39:20;;;;;;;;;;;;;;;;;;6262904;22;19947;-94
2023/02/15 20:41:46;;;;;;;;;;;;;;;;;;6238367;22;19923;-94
2023/02/15 20:44:12;;;;;;;;;;;;;;;;;;6235310;22;19977;-94
2023/02/15 20:46:38;;;;;;;;;;;;;;;;;;6258845;22;20451;-93
2023/02/15 20:49:04;;;;;;;;;;;;;;;;;;6258730;22;19922;-95
2023/02/15 20:51:32;;;;;;;;;;;;;;;;;;6234270;22;19921;-94
2023/02/15 20:53:58;;;;;;;;;;;;;;;;;;6233495;22;19915;-94
2023/02/15 20:56:24;;;;;;;;;;;;;;;;;;6234578;22;19964;-93
2023/02/15 21:02:04;;;;;;;;;;;;;;;;;;6274416;22;19919;-94
2023/02/15 21:04:36;;;;;;;;;;;;;;;;;;6248829;22;19915;-96
2023/02/15 21:10:35;;;;;;;;;;;;;;;;;;6239315;22;19922;-94
2023/02/15 21:13:28;;;;;;;;;;;;;;;;;;6183860;23;19991;-92
2023/02/15 21:15:55;;;;;;;;;;;;;;;;;;6134027;23;19991;-92
2023/02/15 21:18:20;;;;;;;;;;;;;;;;;;6133836;23;19939;-92
2023/02/15 21:20:57;;;;;;;;;;;;;;;;;;;;;
2023/02/15 21:26:40;;;;;;;;;;;;;;;;;;6118906;23;19916;-94
2023/02/15 21:29:06;;;;;;;;;;;;;;;;;;6133851;23;19916;-91
2023/02/15 21:31:32;;;;;;;;;;;;;;;;;;6133585;23;19924;-92
2023/02/15 21:33:58;;;;;;;;;;;;;;;;;;6132455;23;19924;-92
2023/02/15 21:36:40;;;;;;;;;;;;;;;;;;6156866;23;19939;-93
2023/02/15 21:39:09;;;;;;;;;;;;;;;;;;6157806;23;20012;-91
2023/02/15 21:49:56;;;;;;;;;;;;;;;;;;6250651;22;19925;-92
2023/02/15 21:52:22;;;;;;;;;;;;;;;;;;6226087;22;19923;-91
2023/02/15 21:54:50;;;;;;;;;;;;;;;;;;6226760;22;19920;-95
2023/02/15 21:57:22;;;;;;;;;;;;;;;;;;6200218;23;20329;-95
2023/02/15 22:00:02;;;;;;;;;;;;;;;;;;;;;
2023/02/15 22:17:26;;;;;;;;;;;;;;;;;;;;;
2023/02/15 22:19:57;;;;;;;;;;;;;;;;;;;;;
2023/02/15 22:22:41;;;;;;;;;;;;;;;;;;;;;
